sensor_id;sensor_type;location;lat;lon;timestamp;temperature;humidity
56725;DHT22;42608;52.776;6.968;2023-02-04T00:00:49;6.70;99.90
56725;DHT22;42608;52.776;6.968;2023-02-04T00:03:15;6.70;99.90
56725;DHT22;42608;52.776;6.968;2023-02-04T00:05:40;6.70;99.90
56725;DHT22;42608;52.776;6.968;2023-02-04T00:08:06;6.70;99.90
56725;DHT22;42608;52.776;6.968;2023-02-04T00:10:32;6.70;99.90
56725;DHT22;42608;52.776;6.968;2023-02-04T00:12:57;6.70;99.90
56725;DHT22;42608;52.776;6.968;2023-02-04T00:15:23;6.70;99.90
56725;DHT22;42608;52.776;6.968;2023-02-04T00:17:48;6.70;99.90
56725;DHT22;42608;52.776;6.968;2023-02-04T00:20:14;6.80;99.90
56725;DHT22;42608;52.776;6.968;2023-02-04T00:22:39;6.80;99.90
56725;DHT22;42608;52.776;6.968;2023-02-04T00:25:05;6.70;99.90
56725;DHT22;42608;52.776;6.968;2023-02-04T00:27:31;6.70;99.90
56725;DHT22;42608;52.776;6.968;2023-02-04T00:29:56;6.80;99.90
56725;DHT22;42608;52.776;6.968;2023-02-04T00:32:22;6.80;99.90
56725;DHT22;42608;52.776;6.968;2023-02-04T00:34:48;6.80;99.90
56725;DHT22;42608;52.776;6.968;2023-02-04T00:37:13;6.80;99.90
56725;DHT22;42608;52.776;6.968;2023-02-04T00:39:39;6.80;99.90
56725;DHT22;42608;52.776;6.968;2023-02-04T00:42:05;6.70;99.90
56725;DHT22;42608;52.776;6.968;2023-02-04T00:44:30;6.70;99.90
56725;DHT22;42608;52.776;6.968;2023-02-04T00:46:56;6.70;99.90
56725;DHT22;42608;52.776;6.968;2023-02-04T00:49:21;6.70;99.90
56725;DHT22;42608;52.776;6.968;2023-02-04T00:51:47;6.70;99.90
56725;DHT22;42608;52.776;6.968;2023-02-04T00:54:13;6.60;99.90
56725;DHT22;42608;52.776;6.968;2023-02-04T00:56:43;6.70;99.90
56725;DHT22;42608;52.776;6.968;2023-02-04T00:59:09;6.70;99.90
56725;DHT22;42608;52.776;6.968;2023-02-04T01:01:34;6.70;99.90
56725;DHT22;42608;52.776;6.968;2023-02-04T01:04:00;6.60;99.90
56725;DHT22;42608;52.776;6.968;2023-02-04T01:06:26;6.60;99.90
56725;DHT22;42608;52.776;6.968;2023-02-04T01:08:51;6.70;99.90
56725;DHT22;42608;52.776;6.968;2023-02-04T01:11:17;6.60;99.90
56725;DHT22;42608;52.776;6.968;2023-02-04T01:13:43;6.70;99.90
56725;DHT22;42608;52.776;6.968;2023-02-04T01:16:08;6.70;99.90
56725;DHT22;42608;52.776;6.968;2023-02-04T01:18:34;6.70;99.90
56725;DHT22;42608;52.776;6.968;2023-02-04T01:21:00;6.70;99.90
56725;DHT22;42608;52.776;6.968;2023-02-04T01:23:25;6.70;99.90
56725;DHT22;42608;52.776;6.968;2023-02-04T01:25:51;6.70;99.90
56725;DHT22;42608;52.776;6.968;2023-02-04T01:28:22;6.70;99.90
56725;DHT22;42608;52.776;6.968;2023-02-04T01:30:48;6.70;99.90
56725;DHT22;42608;52.776;6.968;2023-02-04T01:33:13;6.70;99.90
56725;DHT22;42608;52.776;6.968;2023-02-04T01:35:39;6.70;99.90
56725;DHT22;42608;52.776;6.968;2023-02-04T01:38:05;6.70;99.90
56725;DHT22;42608;52.776;6.968;2023-02-04T01:40:30;6.60;99.90
56725;DHT22;42608;52.776;6.968;2023-02-04T01:42:56;6.60;99.90
56725;DHT22;42608;52.776;6.968;2023-02-04T01:45:22;6.70;99.90
56725;DHT22;42608;52.776;6.968;2023-02-04T01:47:47;6.70;99.90
56725;DHT22;42608;52.776;6.968;2023-02-04T01:50:13;6.70;99.90
56725;DHT22;42608;52.776;6.968;2023-02-04T01:52:41;6.70;99.90
56725;DHT22;42608;52.776;6.968;2023-02-04T01:55:17;6.60;99.90
56725;DHT22;42608;52.776;6.968;2023-02-04T01:57:43;6.60;99.90
56725;DHT22;42608;52.776;6.968;2023-02-04T02:00:16;6.60;99.90
56725;DHT22;42608;52.776;6.968;2023-02-04T02:02:44;6.60;99.90
56725;DHT22;42608;52.776;6.968;2023-02-04T02:05:14;6.60;99.90
56725;DHT22;42608;52.776;6.968;2023-02-04T02:07:40;6.60;99.90
56725;DHT22;42608;52.776;6.968;2023-02-04T02:10:07;6.60;99.90
56725;DHT22;42608;52.776;6.968;2023-02-04T02:12:33;6.60;99.90
56725;DHT22;42608;52.776;6.968;2023-02-04T02:15:00;6.60;99.90
56725;DHT22;42608;52.776;6.968;2023-02-04T02:17:25;6.60;99.90
56725;DHT22;42608;52.776;6.968;2023-02-04T02:19:51;6.60;99.90
56725;DHT22;42608;52.776;6.968;2023-02-04T02:24:42;6.60;99.90
56725;DHT22;42608;52.776;6.968;2023-02-04T02:27:08;6.60;99.90
56725;DHT22;42608;52.776;6.968;2023-02-04T02:29:37;6.60;99.90
56725;DHT22;42608;52.776;6.968;2023-02-04T02:32:05;6.60;99.90
56725;DHT22;42608;52.776;6.968;2023-02-04T02:34:30;6.60;99.90
56725;DHT22;42608;52.776;6.968;2023-02-04T02:36:57;6.60;99.90
56725;DHT22;42608;52.776;6.968;2023-02-04T02:39:23;6.60;99.90
56725;DHT22;42608;52.776;6.968;2023-02-04T02:41:49;6.60;99.90
56725;DHT22;42608;52.776;6.968;2023-02-04T02:44:17;6.60;99.90
56725;DHT22;42608;52.776;6.968;2023-02-04T02:46:43;6.60;99.90
56725;DHT22;42608;52.776;6.968;2023-02-04T02:49:11;6.60;99.90
56725;DHT22;42608;52.776;6.968;2023-02-04T02:51:37;6.60;99.90
56725;DHT22;42608;52.776;6.968;2023-02-04T02:54:03;6.60;99.90
56725;DHT22;42608;52.776;6.968;2023-02-04T02:56:28;6.60;99.90
56725;DHT22;42608;52.776;6.968;2023-02-04T02:58:54;6.60;99.90
56725;DHT22;42608;52.776;6.968;2023-02-04T03:01:19;6.60;99.90
56725;DHT22;42608;52.776;6.968;2023-02-04T03:03:46;6.60;99.90
56725;DHT22;42608;52.776;6.968;2023-02-04T03:06:18;6.60;99.90
56725;DHT22;42608;52.776;6.968;2023-02-04T03:08:45;6.60;99.90
56725;DHT22;42608;52.776;6.968;2023-02-04T03:11:11;6.60;99.90
56725;DHT22;42608;52.776;6.968;2023-02-04T03:13:37;6.60;99.90
56725;DHT22;42608;52.776;6.968;2023-02-04T03:16:02;6.60;99.90
56725;DHT22;42608;52.776;6.968;2023-02-04T03:18:29;6.60;99.90
56725;DHT22;42608;52.776;6.968;2023-02-04T03:20:55;6.70;99.90
56725;DHT22;42608;52.776;6.968;2023-02-04T03:23:21;6.60;99.90
56725;DHT22;42608;52.776;6.968;2023-02-04T03:25:47;6.60;99.90
56725;DHT22;42608;52.776;6.968;2023-02-04T03:28:12;6.60;99.90
56725;DHT22;42608;52.776;6.968;2023-02-04T03:30:38;6.60;99.90
56725;DHT22;42608;52.776;6.968;2023-02-04T03:33:04;6.60;99.90
56725;DHT22;42608;52.776;6.968;2023-02-04T03:35:29;6.60;99.90
56725;DHT22;42608;52.776;6.968;2023-02-04T03:37:55;6.60;99.90
56725;DHT22;42608;52.776;6.968;2023-02-04T03:40:20;6.60;99.90
56725;DHT22;42608;52.776;6.968;2023-02-04T03:42:46;6.60;99.90
56725;DHT22;42608;52.776;6.968;2023-02-04T03:45:11;6.70;99.90
56725;DHT22;42608;52.776;6.968;2023-02-04T03:47:37;6.60;99.90
56725;DHT22;42608;52.776;6.968;2023-02-04T03:50:03;6.70;99.90
56725;DHT22;42608;52.776;6.968;2023-02-04T03:52:29;6.70;99.90
56725;DHT22;42608;52.776;6.968;2023-02-04T03:54:57;6.70;99.90
56725;DHT22;42608;52.776;6.968;2023-02-04T03:57:23;6.60;99.90
56725;DHT22;42608;52.776;6.968;2023-02-04T03:59:48;6.70;99.90
56725;DHT22;42608;52.776;6.968;2023-02-04T04:02:14;6.70;99.90
56725;DHT22;42608;52.776;6.968;2023-02-04T04:04:40;6.60;99.90
56725;DHT22;42608;52.776;6.968;2023-02-04T04:07:08;6.70;99.90
56725;DHT22;42608;52.776;6.968;2023-02-04T04:09:34;6.60;99.90
56725;DHT22;42608;52.776;6.968;2023-02-04T04:11:59;6.60;99.90
56725;DHT22;42608;52.776;6.968;2023-02-04T04:14:25;6.60;99.90
56725;DHT22;42608;52.776;6.968;2023-02-04T04:16:50;6.60;99.90
56725;DHT22;42608;52.776;6.968;2023-02-04T04:19:16;6.60;99.90
56725;DHT22;42608;52.776;6.968;2023-02-04T04:21:41;6.60;99.90
56725;DHT22;42608;52.776;6.968;2023-02-04T04:24:07;6.60;99.90
56725;DHT22;42608;52.776;6.968;2023-02-04T04:26:33;6.60;99.90
56725;DHT22;42608;52.776;6.968;2023-02-04T04:28:58;6.60;99.90
56725;DHT22;42608;52.776;6.968;2023-02-04T04:31:24;6.60;99.90
56725;DHT22;42608;52.776;6.968;2023-02-04T04:33:49;6.60;99.90
56725;DHT22;42608;52.776;6.968;2023-02-04T04:36:15;6.60;99.90
56725;DHT22;42608;52.776;6.968;2023-02-04T04:38:40;6.60;99.90
56725;DHT22;42608;52.776;6.968;2023-02-04T04:41:06;6.60;99.90
56725;DHT22;42608;52.776;6.968;2023-02-04T04:43:31;6.60;99.90
56725;DHT22;42608;52.776;6.968;2023-02-04T04:45:57;6.60;99.90
56725;DHT22;42608;52.776;6.968;2023-02-04T04:48:22;6.60;99.90
56725;DHT22;42608;52.776;6.968;2023-02-04T04:50:49;6.60;99.90
56725;DHT22;42608;52.776;6.968;2023-02-04T04:53:14;6.50;99.90
56725;DHT22;42608;52.776;6.968;2023-02-04T04:55:40;6.50;99.90
56725;DHT22;42608;52.776;6.968;2023-02-04T04:58:06;6.60;99.90
56725;DHT22;42608;52.776;6.968;2023-02-04T05:00:31;6.60;99.90
56725;DHT22;42608;52.776;6.968;2023-02-04T05:02:57;6.50;99.90
56725;DHT22;42608;52.776;6.968;2023-02-04T05:05:23;6.50;99.90
56725;DHT22;42608;52.776;6.968;2023-02-04T05:07:48;6.50;99.90
56725;DHT22;42608;52.776;6.968;2023-02-04T05:10:14;6.40;99.90
56725;DHT22;42608;52.776;6.968;2023-02-04T05:12:40;6.40;99.90
56725;DHT22;42608;52.776;6.968;2023-02-04T05:15:06;6.40;99.90
56725;DHT22;42608;52.776;6.968;2023-02-04T05:17:31;6.30;99.90
56725;DHT22;42608;52.776;6.968;2023-02-04T05:19:57;6.30;99.90
56725;DHT22;42608;52.776;6.968;2023-02-04T05:22:23;6.30;99.90
56725;DHT22;42608;52.776;6.968;2023-02-04T05:24:48;6.30;99.90
56725;DHT22;42608;52.776;6.968;2023-02-04T05:27:14;6.30;99.90
56725;DHT22;42608;52.776;6.968;2023-02-04T05:29:39;6.20;99.90
56725;DHT22;42608;52.776;6.968;2023-02-04T05:32:05;6.20;99.90
56725;DHT22;42608;52.776;6.968;2023-02-04T05:34:30;6.10;99.90
56725;DHT22;42608;52.776;6.968;2023-02-04T05:36:56;6.10;99.90
56725;DHT22;42608;52.776;6.968;2023-02-04T05:39:21;6.20;99.90
56725;DHT22;42608;52.776;6.968;2023-02-04T05:41:47;6.10;99.90
56725;DHT22;42608;52.776;6.968;2023-02-04T05:44:13;6.10;99.90
56725;DHT22;42608;52.776;6.968;2023-02-04T05:46:38;6.10;99.90
56725;DHT22;42608;52.776;6.968;2023-02-04T05:49:04;6.10;99.90
56725;DHT22;42608;52.776;6.968;2023-02-04T05:51:30;6.10;99.90
56725;DHT22;42608;52.776;6.968;2023-02-04T05:53:55;6.10;99.90
56725;DHT22;42608;52.776;6.968;2023-02-04T05:56:21;6.10;99.90
56725;DHT22;42608;52.776;6.968;2023-02-04T05:58:46;6.10;99.90
56725;DHT22;42608;52.776;6.968;2023-02-04T06:01:12;6.10;99.90
56725;DHT22;42608;52.776;6.968;2023-02-04T06:03:38;6.10;99.90
56725;DHT22;42608;52.776;6.968;2023-02-04T06:06:03;6.10;99.90
56725;DHT22;42608;52.776;6.968;2023-02-04T06:08:29;6.00;99.90
56725;DHT22;42608;52.776;6.968;2023-02-04T06:10:54;6.10;99.90
56725;DHT22;42608;52.776;6.968;2023-02-04T06:13:20;6.00;99.90
56725;DHT22;42608;52.776;6.968;2023-02-04T06:15:46;6.00;99.90
56725;DHT22;42608;52.776;6.968;2023-02-04T06:18:11;6.00;99.90
56725;DHT22;42608;52.776;6.968;2023-02-04T06:20:38;6.00;99.90
56725;DHT22;42608;52.776;6.968;2023-02-04T06:23:03;6.00;99.90
56725;DHT22;42608;52.776;6.968;2023-02-04T06:25:29;6.00;99.90
56725;DHT22;42608;52.776;6.968;2023-02-04T06:27:54;6.00;99.90
56725;DHT22;42608;52.776;6.968;2023-02-04T06:30:20;5.90;99.90
56725;DHT22;42608;52.776;6.968;2023-02-04T06:32:45;5.90;99.90
56725;DHT22;42608;52.776;6.968;2023-02-04T06:35:11;5.90;99.90
56725;DHT22;42608;52.776;6.968;2023-02-04T06:37:37;5.90;99.90
56725;DHT22;42608;52.776;6.968;2023-02-04T06:40:03;5.80;99.90
56725;DHT22;42608;52.776;6.968;2023-02-04T06:42:29;5.80;99.90
56725;DHT22;42608;52.776;6.968;2023-02-04T06:44:55;5.80;99.90
56725;DHT22;42608;52.776;6.968;2023-02-04T06:47:21;5.80;99.90
56725;DHT22;42608;52.776;6.968;2023-02-04T06:49:46;5.80;99.90
56725;DHT22;42608;52.776;6.968;2023-02-04T06:52:12;5.80;99.90
56725;DHT22;42608;52.776;6.968;2023-02-04T06:54:38;5.80;99.90
56725;DHT22;42608;52.776;6.968;2023-02-04T06:57:03;5.90;99.90
56725;DHT22;42608;52.776;6.968;2023-02-04T06:59:34;5.90;99.90
56725;DHT22;42608;52.776;6.968;2023-02-04T07:02:00;5.90;99.90
56725;DHT22;42608;52.776;6.968;2023-02-04T07:04:26;5.90;99.90
56725;DHT22;42608;52.776;6.968;2023-02-04T07:06:52;5.80;99.90
56725;DHT22;42608;52.776;6.968;2023-02-04T07:09:18;5.90;99.90
56725;DHT22;42608;52.776;6.968;2023-02-04T07:11:43;5.80;99.90
56725;DHT22;42608;52.776;6.968;2023-02-04T07:14:09;5.90;99.90
56725;DHT22;42608;52.776;6.968;2023-02-04T07:16:35;5.90;99.90
56725;DHT22;42608;52.776;6.968;2023-02-04T07:19:00;5.80;99.90
56725;DHT22;42608;52.776;6.968;2023-02-04T07:21:26;5.80;99.90
56725;DHT22;42608;52.776;6.968;2023-02-04T07:23:52;5.80;99.90
56725;DHT22;42608;52.776;6.968;2023-02-04T07:26:17;5.70;99.90
56725;DHT22;42608;52.776;6.968;2023-02-04T07:28:43;5.70;99.90
56725;DHT22;42608;52.776;6.968;2023-02-04T07:31:09;5.60;99.90
56725;DHT22;42608;52.776;6.968;2023-02-04T07:33:34;5.60;99.90
56725;DHT22;42608;52.776;6.968;2023-02-04T07:36:00;5.60;99.90
56725;DHT22;42608;52.776;6.968;2023-02-04T07:38:26;5.60;99.90
56725;DHT22;42608;52.776;6.968;2023-02-04T07:40:51;5.60;99.90
56725;DHT22;42608;52.776;6.968;2023-02-04T07:43:17;5.50;99.90
56725;DHT22;42608;52.776;6.968;2023-02-04T07:45:42;5.60;99.90
56725;DHT22;42608;52.776;6.968;2023-02-04T07:48:08;5.50;99.90
56725;DHT22;42608;52.776;6.968;2023-02-04T07:50:35;5.50;99.90
56725;DHT22;42608;52.776;6.968;2023-02-04T07:53:00;5.50;99.90
56725;DHT22;42608;52.776;6.968;2023-02-04T07:55:26;5.50;99.90
56725;DHT22;42608;52.776;6.968;2023-02-04T07:57:52;5.40;99.90
56725;DHT22;42608;52.776;6.968;2023-02-04T08:00:17;5.50;99.90
56725;DHT22;42608;52.776;6.968;2023-02-04T08:02:43;5.50;99.90
56725;DHT22;42608;52.776;6.968;2023-02-04T08:05:09;5.40;99.90
56725;DHT22;42608;52.776;6.968;2023-02-04T08:07:34;5.40;99.90
56725;DHT22;42608;52.776;6.968;2023-02-04T08:10:00;5.40;99.90
56725;DHT22;42608;52.776;6.968;2023-02-04T08:12:26;5.40;99.90
56725;DHT22;42608;52.776;6.968;2023-02-04T08:14:51;5.40;99.90
56725;DHT22;42608;52.776;6.968;2023-02-04T08:17:17;5.40;99.90
56725;DHT22;42608;52.776;6.968;2023-02-04T08:19:43;5.40;99.90
56725;DHT22;42608;52.776;6.968;2023-02-04T08:22:08;5.40;99.90
56725;DHT22;42608;52.776;6.968;2023-02-04T08:24:35;5.50;99.90
56725;DHT22;42608;52.776;6.968;2023-02-04T08:27:01;5.40;99.90
56725;DHT22;42608;52.776;6.968;2023-02-04T08:29:27;5.40;99.90
56725;DHT22;42608;52.776;6.968;2023-02-04T08:31:52;5.40;99.90
56725;DHT22;42608;52.776;6.968;2023-02-04T08:34:18;5.40;99.90
56725;DHT22;42608;52.776;6.968;2023-02-04T08:36:43;5.40;99.90
56725;DHT22;42608;52.776;6.968;2023-02-04T08:39:09;5.40;99.90
56725;DHT22;42608;52.776;6.968;2023-02-04T08:41:35;5.50;99.90
56725;DHT22;42608;52.776;6.968;2023-02-04T08:44:00;5.50;99.90
56725;DHT22;42608;52.776;6.968;2023-02-04T08:46:26;5.40;99.90
56725;DHT22;42608;52.776;6.968;2023-02-04T08:48:51;5.50;99.90
56725;DHT22;42608;52.776;6.968;2023-02-04T08:51:17;5.50;99.90
56725;DHT22;42608;52.776;6.968;2023-02-04T08:53:46;5.50;99.90
56725;DHT22;42608;52.776;6.968;2023-02-04T08:56:12;5.60;99.90
56725;DHT22;42608;52.776;6.968;2023-02-04T08:58:41;5.60;99.90
56725;DHT22;42608;52.776;6.968;2023-02-04T09:01:07;5.60;99.90
56725;DHT22;42608;52.776;6.968;2023-02-04T09:03:32;5.60;99.90
56725;DHT22;42608;52.776;6.968;2023-02-04T09:05:58;5.60;99.90
56725;DHT22;42608;52.776;6.968;2023-02-04T09:08:23;5.60;99.90
56725;DHT22;42608;52.776;6.968;2023-02-04T09:10:49;5.60;99.90
56725;DHT22;42608;52.776;6.968;2023-02-04T09:13:14;5.60;99.90
56725;DHT22;42608;52.776;6.968;2023-02-04T09:15:40;5.60;99.90
56725;DHT22;42608;52.776;6.968;2023-02-04T09:18:06;5.60;99.90
56725;DHT22;42608;52.776;6.968;2023-02-04T09:20:43;5.60;99.90
56725;DHT22;42608;52.776;6.968;2023-02-04T09:23:08;5.60;99.90
56725;DHT22;42608;52.776;6.968;2023-02-04T09:25:37;5.70;99.90
56725;DHT22;42608;52.776;6.968;2023-02-04T09:28:03;5.70;99.90
56725;DHT22;42608;52.776;6.968;2023-02-04T09:30:29;5.70;99.90
56725;DHT22;42608;52.776;6.968;2023-02-04T09:32:54;5.70;99.90
56725;DHT22;42608;52.776;6.968;2023-02-04T09:35:20;5.70;99.90
56725;DHT22;42608;52.776;6.968;2023-02-04T09:37:45;5.70;99.90
56725;DHT22;42608;52.776;6.968;2023-02-04T09:40:15;5.80;99.90
56725;DHT22;42608;52.776;6.968;2023-02-04T09:42:42;5.80;99.90
56725;DHT22;42608;52.776;6.968;2023-02-04T09:45:12;5.90;99.90
56725;DHT22;42608;52.776;6.968;2023-02-04T09:47:39;5.90;99.90
56725;DHT22;42608;52.776;6.968;2023-02-04T09:50:04;5.90;99.90
56725;DHT22;42608;52.776;6.968;2023-02-04T09:52:33;5.90;99.90
56725;DHT22;42608;52.776;6.968;2023-02-04T09:54:59;5.90;99.90
56725;DHT22;42608;52.776;6.968;2023-02-04T09:57:26;5.90;99.90
56725;DHT22;42608;52.776;6.968;2023-02-04T09:59:51;5.90;99.90
56725;DHT22;42608;52.776;6.968;2023-02-04T10:02:22;5.90;99.90
56725;DHT22;42608;52.776;6.968;2023-02-04T10:04:49;5.90;99.90
56725;DHT22;42608;52.776;6.968;2023-02-04T10:07:16;6.00;99.90
56725;DHT22;42608;52.776;6.968;2023-02-04T10:09:46;6.00;99.90
56725;DHT22;42608;52.776;6.968;2023-02-04T10:12:12;6.10;99.90
56725;DHT22;42608;52.776;6.968;2023-02-04T10:14:37;6.00;99.90
56725;DHT22;42608;52.776;6.968;2023-02-04T10:17:04;6.10;99.90
56725;DHT22;42608;52.776;6.968;2023-02-04T10:19:33;6.10;99.90
56725;DHT22;42608;52.776;6.968;2023-02-04T10:22:02;6.10;99.90
56725;DHT22;42608;52.776;6.968;2023-02-04T10:24:27;6.20;99.90
56725;DHT22;42608;52.776;6.968;2023-02-04T10:27:05;6.20;99.90
56725;DHT22;42608;52.776;6.968;2023-02-04T10:29:31;6.20;99.90
56725;DHT22;42608;52.776;6.968;2023-02-04T10:31:56;6.20;99.90
56725;DHT22;42608;52.776;6.968;2023-02-04T10:34:23;6.20;99.90
56725;DHT22;42608;52.776;6.968;2023-02-04T10:36:50;6.30;99.90
56725;DHT22;42608;52.776;6.968;2023-02-04T10:39:17;6.30;99.90
56725;DHT22;42608;52.776;6.968;2023-02-04T10:41:44;6.30;99.90
56725;DHT22;42608;52.776;6.968;2023-02-04T10:44:11;6.40;99.90
56725;DHT22;42608;52.776;6.968;2023-02-04T10:46:36;6.40;99.90
56725;DHT22;42608;52.776;6.968;2023-02-04T10:49:19;6.40;99.90
56725;DHT22;42608;52.776;6.968;2023-02-04T10:51:45;6.40;99.90
56725;DHT22;42608;52.776;6.968;2023-02-04T10:54:11;6.40;99.90
56725;DHT22;42608;52.776;6.968;2023-02-04T10:56:58;6.50;99.90
56725;DHT22;42608;52.776;6.968;2023-02-04T10:59:25;6.50;99.90
56725;DHT22;42608;52.776;6.968;2023-02-04T11:01:55;6.60;99.90
56725;DHT22;42608;52.776;6.968;2023-02-04T11:04:22;6.60;99.90
56725;DHT22;42608;52.776;6.968;2023-02-04T11:06:49;6.60;99.90
56725;DHT22;42608;52.776;6.968;2023-02-04T11:09:14;6.60;99.90
56725;DHT22;42608;52.776;6.968;2023-02-04T11:11:47;6.70;99.90
56725;DHT22;42608;52.776;6.968;2023-02-04T11:14:26;6.70;99.90
56725;DHT22;42608;52.776;6.968;2023-02-04T11:16:52;6.80;99.90
56725;DHT22;42608;52.776;6.968;2023-02-04T11:22:05;6.80;99.90
56725;DHT22;42608;52.776;6.968;2023-02-04T11:24:33;6.80;99.90
56725;DHT22;42608;52.776;6.968;2023-02-04T11:27:07;6.80;99.90
56725;DHT22;42608;52.776;6.968;2023-02-04T11:29:42;6.80;99.90
56725;DHT22;42608;52.776;6.968;2023-02-04T11:34:52;6.80;99.90
56725;DHT22;42608;52.776;6.968;2023-02-04T11:39:51;6.90;99.90
56725;DHT22;42608;52.776;6.968;2023-02-04T11:45:10;7.00;99.90
56725;DHT22;42608;52.776;6.968;2023-02-04T11:47:37;7.00;99.90
56725;DHT22;42608;52.776;6.968;2023-02-04T11:50:13;7.00;99.90
56725;DHT22;42608;52.776;6.968;2023-02-04T11:52:40;7.00;99.90
56725;DHT22;42608;52.776;6.968;2023-02-04T11:55:09;7.00;99.90
56725;DHT22;42608;52.776;6.968;2023-02-04T11:57:39;7.00;99.90
56725;DHT22;42608;52.776;6.968;2023-02-04T12:00:05;7.00;99.90
56725;DHT22;42608;52.776;6.968;2023-02-04T12:02:40;7.00;99.90
56725;DHT22;42608;52.776;6.968;2023-02-04T12:05:10;7.00;99.90
56725;DHT22;42608;52.776;6.968;2023-02-04T12:07:37;7.00;99.90
56725;DHT22;42608;52.776;6.968;2023-02-04T12:12:57;7.10;99.90
56725;DHT22;42608;52.776;6.968;2023-02-04T12:15:29;7.10;99.90
56725;DHT22;42608;52.776;6.968;2023-02-04T12:18:07;7.10;99.90
56725;DHT22;42608;52.776;6.968;2023-02-04T12:20:33;7.20;99.90
56725;DHT22;42608;52.776;6.968;2023-02-04T12:22:59;7.20;99.90
56725;DHT22;42608;52.776;6.968;2023-02-04T12:25:25;7.20;99.90
56725;DHT22;42608;52.776;6.968;2023-02-04T12:27:51;7.20;99.90
56725;DHT22;42608;52.776;6.968;2023-02-04T12:30:18;7.10;99.90
56725;DHT22;42608;52.776;6.968;2023-02-04T12:32:44;7.10;99.90
56725;DHT22;42608;52.776;6.968;2023-02-04T12:35:10;7.10;99.90
56725;DHT22;42608;52.776;6.968;2023-02-04T12:37:36;7.10;99.90
56725;DHT22;42608;52.776;6.968;2023-02-04T12:40:01;7.20;99.90
56725;DHT22;42608;52.776;6.968;2023-02-04T12:42:27;7.20;99.90
56725;DHT22;42608;52.776;6.968;2023-02-04T12:44:52;7.10;99.90
56725;DHT22;42608;52.776;6.968;2023-02-04T12:47:24;7.20;99.90
56725;DHT22;42608;52.776;6.968;2023-02-04T12:49:49;7.20;99.90
56725;DHT22;42608;52.776;6.968;2023-02-04T12:52:15;7.20;99.90
56725;DHT22;42608;52.776;6.968;2023-02-04T12:54:41;7.20;99.90
56725;DHT22;42608;52.776;6.968;2023-02-04T12:57:08;7.30;99.90
56725;DHT22;42608;52.776;6.968;2023-02-04T12:59:33;7.30;99.90
56725;DHT22;42608;52.776;6.968;2023-02-04T13:01:59;7.30;99.90
56725;DHT22;42608;52.776;6.968;2023-02-04T13:04:25;7.30;99.90
56725;DHT22;42608;52.776;6.968;2023-02-04T13:06:50;7.30;99.90
56725;DHT22;42608;52.776;6.968;2023-02-04T13:09:16;7.40;99.90
56725;DHT22;42608;52.776;6.968;2023-02-04T13:11:41;7.40;99.90
56725;DHT22;42608;52.776;6.968;2023-02-04T13:14:07;7.40;99.90
56725;DHT22;42608;52.776;6.968;2023-02-04T13:16:32;7.40;99.90
56725;DHT22;42608;52.776;6.968;2023-02-04T13:18:58;7.40;99.90
56725;DHT22;42608;52.776;6.968;2023-02-04T13:21:23;7.30;99.90
56725;DHT22;42608;52.776;6.968;2023-02-04T13:23:49;7.30;99.90
56725;DHT22;42608;52.776;6.968;2023-02-04T13:26:14;7.40;99.90
56725;DHT22;42608;52.776;6.968;2023-02-04T13:28:46;7.50;99.90
56725;DHT22;42608;52.776;6.968;2023-02-04T13:31:11;7.50;99.90
56725;DHT22;42608;52.776;6.968;2023-02-04T13:33:37;7.50;99.90
56725;DHT22;42608;52.776;6.968;2023-02-04T13:36:03;7.60;99.90
56725;DHT22;42608;52.776;6.968;2023-02-04T13:38:29;7.60;99.90
56725;DHT22;42608;52.776;6.968;2023-02-04T13:40:54;7.50;99.90
56725;DHT22;42608;52.776;6.968;2023-02-04T13:43:20;7.50;99.90
56725;DHT22;42608;52.776;6.968;2023-02-04T13:45:45;7.60;99.90
56725;DHT22;42608;52.776;6.968;2023-02-04T13:48:13;7.60;99.90
56725;DHT22;42608;52.776;6.968;2023-02-04T13:50:38;7.70;99.90
56725;DHT22;42608;52.776;6.968;2023-02-04T13:53:04;7.70;99.90
56725;DHT22;42608;52.776;6.968;2023-02-04T13:55:30;7.70;99.90
56725;DHT22;42608;52.776;6.968;2023-02-04T13:57:55;7.70;99.90
56725;DHT22;42608;52.776;6.968;2023-02-04T14:00:21;7.80;99.90
56725;DHT22;42608;52.776;6.968;2023-02-04T14:02:46;7.80;99.90
56725;DHT22;42608;52.776;6.968;2023-02-04T14:05:13;7.80;99.90
56725;DHT22;42608;52.776;6.968;2023-02-04T14:07:39;7.80;99.90
56725;DHT22;42608;52.776;6.968;2023-02-04T14:10:06;7.90;99.90
56725;DHT22;42608;52.776;6.968;2023-02-04T14:12:31;7.90;99.90
56725;DHT22;42608;52.776;6.968;2023-02-04T14:14:57;7.90;99.90
56725;DHT22;42608;52.776;6.968;2023-02-04T14:17:23;7.90;99.90
56725;DHT22;42608;52.776;6.968;2023-02-04T14:19:51;7.90;99.90
56725;DHT22;42608;52.776;6.968;2023-02-04T14:22:17;7.80;99.90
56725;DHT22;42608;52.776;6.968;2023-02-04T14:24:43;7.80;99.90
56725;DHT22;42608;52.776;6.968;2023-02-04T14:27:09;7.80;99.90
56725;DHT22;42608;52.776;6.968;2023-02-04T14:29:34;7.80;99.90
56725;DHT22;42608;52.776;6.968;2023-02-04T14:32:00;7.80;99.90
56725;DHT22;42608;52.776;6.968;2023-02-04T14:34:26;7.80;99.90
56725;DHT22;42608;52.776;6.968;2023-02-04T14:36:51;7.80;99.90
56725;DHT22;42608;52.776;6.968;2023-02-04T14:39:17;7.80;99.90
56725;DHT22;42608;52.776;6.968;2023-02-04T14:41:48;7.70;99.90
56725;DHT22;42608;52.776;6.968;2023-02-04T14:44:14;7.80;99.90
56725;DHT22;42608;52.776;6.968;2023-02-04T14:46:45;7.80;99.90
56725;DHT22;42608;52.776;6.968;2023-02-04T14:49:13;7.80;99.90
56725;DHT22;42608;52.776;6.968;2023-02-04T14:51:39;7.80;99.90
56725;DHT22;42608;52.776;6.968;2023-02-04T14:54:04;7.80;99.90
56725;DHT22;42608;52.776;6.968;2023-02-04T14:56:30;7.90;99.90
56725;DHT22;42608;52.776;6.968;2023-02-04T14:58:56;7.80;99.90
56725;DHT22;42608;52.776;6.968;2023-02-04T15:01:21;7.80;99.90
56725;DHT22;42608;52.776;6.968;2023-02-04T15:03:47;7.80;99.90
56725;DHT22;42608;52.776;6.968;2023-02-04T15:06:12;7.80;99.90
56725;DHT22;42608;52.776;6.968;2023-02-04T15:08:38;7.70;99.90
56725;DHT22;42608;52.776;6.968;2023-02-04T15:11:04;7.70;99.90
56725;DHT22;42608;52.776;6.968;2023-02-04T15:13:29;7.70;99.90
56725;DHT22;42608;52.776;6.968;2023-02-04T15:15:55;7.60;99.90
56725;DHT22;42608;52.776;6.968;2023-02-04T15:18:20;7.60;99.90
56725;DHT22;42608;52.776;6.968;2023-02-04T15:20:46;7.50;99.90
56725;DHT22;42608;52.776;6.968;2023-02-04T15:23:12;7.50;99.90
56725;DHT22;42608;52.776;6.968;2023-02-04T15:25:39;7.50;99.90
56725;DHT22;42608;52.776;6.968;2023-02-04T15:28:05;7.40;99.90
56725;DHT22;42608;52.776;6.968;2023-02-04T15:30:31;7.40;99.90
56725;DHT22;42608;52.776;6.968;2023-02-04T15:32:56;7.30;99.90
56725;DHT22;42608;52.776;6.968;2023-02-04T15:35:22;7.30;99.90
56725;DHT22;42608;52.776;6.968;2023-02-04T15:37:47;7.30;99.90
56725;DHT22;42608;52.776;6.968;2023-02-04T15:40:13;7.30;99.90
56725;DHT22;42608;52.776;6.968;2023-02-04T15:42:39;7.20;99.90
56725;DHT22;42608;52.776;6.968;2023-02-04T15:45:05;7.20;99.90
56725;DHT22;42608;52.776;6.968;2023-02-04T15:47:31;7.20;99.90
56725;DHT22;42608;52.776;6.968;2023-02-04T15:49:56;7.20;99.90
56725;DHT22;42608;52.776;6.968;2023-02-04T15:52:22;7.20;99.90
56725;DHT22;42608;52.776;6.968;2023-02-04T15:54:48;7.20;99.90